sensor_id;sensor_type;location;lat;lon;timestamp;pressure;altitude;pressure_sealevel;temperature;humidity
5905;BME280;2978;42.012;24.880;2023-04-10T00:01:28;98933.53;;;9.90;64.09
5905;BME280;2978;42.012;24.880;2023-04-10T00:03:59;98934.06;;;9.87;64.58
5905;BME280;2978;42.012;24.880;2023-04-10T00:06:25;98924.16;;;9.81;64.55
5905;BME280;2978;42.012;24.880;2023-04-10T00:08:52;98922.47;;;9.75;65.14
5905;BME280;2978;42.012;24.880;2023-04-10T00:11:17;98917.50;;;9.72;65.20
5905;BME280;2978;42.012;24.880;2023-04-10T00:13:43;98914.44;;;9.63;65.48
5905;BME280;2978;42.012;24.880;2023-04-10T00:16:09;98910.28;;;9.61;65.43
5905;BME280;2978;42.012;24.880;2023-04-10T00:18:35;98909.22;;;9.62;65.30
5905;BME280;2978;42.012;24.880;2023-04-10T00:21:02;98911.44;;;9.65;65.19
5905;BME280;2978;42.012;24.880;2023-04-10T00:23:27;98902.63;;;9.63;64.97
5905;BME280;2978;42.012;24.880;2023-04-10T00:25:55;98901.81;;;9.62;64.84
5905;BME280;2978;42.012;24.880;2023-04-10T00:28:21;98897.69;;;9.60;64.78
5905;BME280;2978;42.012;24.880;2023-04-10T00:30:47;98900.41;;;9.60;64.79
5905;BME280;2978;42.012;24.880;2023-04-10T00:33:12;98898.22;;;9.57;64.87
5905;BME280;2978;42.012;24.880;2023-04-10T00:35:37;98890.25;;;9.55;65.18
5905;BME280;2978;42.012;24.880;2023-04-10T00:38:03;98886.91;;;9.48;64.87
5905;BME280;2978;42.012;24.880;2023-04-10T00:40:28;98875.63;;;9.45;64.97
5905;BME280;2978;42.012;24.880;2023-04-10T00:42:54;98871.19;;;9.39;64.29
5905;BME280;2978;42.012;24.880;2023-04-10T00:45:20;98881.66;;;9.47;64.38
5905;BME280;2978;42.012;24.880;2023-04-10T00:47:45;98882.22;;;9.49;64.53
5905;BME280;2978;42.012;24.880;2023-04-10T00:50:11;98883.03;;;9.44;65.16
5905;BME280;2978;42.012;24.880;2023-04-10T00:52:37;98882.75;;;9.41;64.77
5905;BME280;2978;42.012;24.880;2023-04-10T00:55:03;98872.31;;;9.38;64.85
5905;BME280;2978;42.012;24.880;2023-04-10T00:57:28;98869.00;;;9.36;64.70
5905;BME280;2978;42.012;24.880;2023-04-10T00:59:54;98865.72;;;9.39;64.50
5905;BME280;2978;42.012;24.880;2023-04-10T01:02:20;98873.97;;;9.44;64.59
5905;BME280;2978;42.012;24.880;2023-04-10T01:04:45;98862.97;;;9.39;64.79
5905;BME280;2978;42.012;24.880;2023-04-10T01:15:12;98864.75;;;9.18;65.67
5905;BME280;2978;42.012;24.880;2023-04-10T01:17:46;98855.31;;;9.04;65.67
5905;BME280;2978;42.012;24.880;2023-04-10T01:20:22;98854.47;;;9.03;65.84
5905;BME280;2978;42.012;24.880;2023-04-10T01:25:45;98856.06;;;8.94;66.24
5905;BME280;2978;42.012;24.880;2023-04-10T01:30:50;98858.72;;;8.84;66.47
5905;BME280;2978;42.012;24.880;2023-04-10T01:33:19;98846.41;;;8.87;66.20
5905;BME280;2978;42.012;24.880;2023-04-10T01:35:52;98846.16;;;8.88;66.17
5905;BME280;2978;42.012;24.880;2023-04-10T01:38:23;98853.81;;;8.86;65.97
5905;BME280;2978;42.012;24.880;2023-04-10T01:40:52;98852.16;;;8.85;66.00
5905;BME280;2978;42.012;24.880;2023-04-10T01:43:19;98849.66;;;8.84;66.55
5905;BME280;2978;42.012;24.880;2023-04-10T01:45:47;98862.06;;;8.91;66.41
5905;BME280;2978;42.012;24.880;2023-04-10T01:48:13;98858.16;;;8.82;65.99
5905;BME280;2978;42.012;24.880;2023-04-10T01:50:42;98856.50;;;8.81;66.18
5905;BME280;2978;42.012;24.880;2023-04-10T01:53:09;98856.22;;;8.78;66.91
5905;BME280;2978;42.012;24.880;2023-04-10T01:55:36;98866.88;;;8.74;66.86
5905;BME280;2978;42.012;24.880;2023-04-10T01:58:02;98863.28;;;8.74;66.78
5905;BME280;2978;42.012;24.880;2023-04-10T02:00:29;98858.38;;;8.76;67.01
5905;BME280;2978;42.012;24.880;2023-04-10T02:02:54;98863.03;;;8.75;67.15
5905;BME280;2978;42.012;24.880;2023-04-10T02:05:20;98873.97;;;8.75;66.79
5905;BME280;2978;42.012;24.880;2023-04-10T02:13:48;98880.94;;;8.56;68.21
5905;BME280;2978;42.012;24.880;2023-04-10T02:16:18;98878.19;;;8.56;67.89
5905;BME280;2978;42.012;24.880;2023-04-10T02:18:46;98881.16;;;8.50;68.09
5905;BME280;2978;42.012;24.880;2023-04-10T02:21:13;98879.59;;;8.59;67.70
5905;BME280;2978;42.012;24.880;2023-04-10T02:23:39;98881.06;;;8.66;67.62
5905;BME280;2978;42.012;24.880;2023-04-10T02:26:06;98870.69;;;8.73;67.07
5905;BME280;2978;42.012;24.880;2023-04-10T02:28:32;98882.44;;;8.69;67.52
5905;BME280;2978;42.012;24.880;2023-04-10T02:30:57;98869.78;;;8.63;67.93
5905;BME280;2978;42.012;24.880;2023-04-10T02:33:23;98866.16;;;8.57;67.84
5905;BME280;2978;42.012;24.880;2023-04-10T02:35:48;98875.16;;;8.53;68.25
5905;BME280;2978;42.012;24.880;2023-04-10T02:38:14;98869.84;;;8.41;68.93
5905;BME280;2978;42.012;24.880;2023-04-10T02:40:39;98861.44;;;8.53;67.96
5905;BME280;2978;42.012;24.880;2023-04-10T02:43:05;98856.72;;;8.43;68.56
5905;BME280;2978;42.012;24.880;2023-04-10T02:45:30;98856.66;;;8.38;68.79
5905;BME280;2978;42.012;24.880;2023-04-10T02:47:57;98863.72;;;8.34;69.16
5905;BME280;2978;42.012;24.880;2023-04-10T02:50:23;98851.69;;;8.35;69.01
5905;BME280;2978;42.012;24.880;2023-04-10T02:52:48;98850.09;;;8.18;69.79
5905;BME280;2978;42.012;24.880;2023-04-10T02:55:14;98857.56;;;8.22;70.13
5905;BME280;2978;42.012;24.880;2023-04-10T02:57:40;98853.41;;;8.20;70.47
5905;BME280;2978;42.012;24.880;2023-04-10T03:00:07;98839.97;;;8.18;69.79
5905;BME280;2978;42.012;24.880;2023-04-10T03:02:32;98834.19;;;8.15;69.81
5905;BME280;2978;42.012;24.880;2023-04-10T03:05:00;98837.72;;;8.10;70.09
5905;BME280;2978;42.012;24.880;2023-04-10T03:07:25;98843.06;;;8.00;70.90
5905;BME280;2978;42.012;24.880;2023-04-10T03:09:51;98838.09;;;7.97;71.27
5905;BME280;2978;42.012;24.880;2023-04-10T03:12:16;98834.78;;;7.95;70.16
5905;BME280;2978;42.012;24.880;2023-04-10T03:14:42;98837.47;;;7.90;69.99
5905;BME280;2978;42.012;24.880;2023-04-10T03:17:07;98842.19;;;7.94;70.44
5905;BME280;2978;42.012;24.880;2023-04-10T03:19:33;98844.19;;;8.04;70.03
5905;BME280;2978;42.012;24.880;2023-04-10T03:21:58;98843.56;;;7.97;70.13
5905;BME280;2978;42.012;24.880;2023-04-10T03:24:24;98835.09;;;7.98;69.75
5905;BME280;2978;42.012;24.880;2023-04-10T03:26:49;98845.88;;;8.05;69.76
5905;BME280;2978;42.012;24.880;2023-04-10T03:29:16;98847.59;;;8.16;69.39
5905;BME280;2978;42.012;24.880;2023-04-10T03:31:43;98848.72;;;8.15;69.09
5905;BME280;2978;42.012;24.880;2023-04-10T03:34:08;98844.88;;;8.16;69.47
5905;BME280;2978;42.012;24.880;2023-04-10T03:36:34;98846.81;;;8.16;69.14
5905;BME280;2978;42.012;24.880;2023-04-10T03:39:00;98842.41;;;8.15;69.78
5905;BME280;2978;42.012;24.880;2023-04-10T03:41:25;98841.00;;;8.12;68.91
5905;BME280;2978;42.012;24.880;2023-04-10T03:43:51;98846.97;;;8.09;69.56
5905;BME280;2978;42.012;24.880;2023-04-10T03:46:16;98846.94;;;8.04;69.19
5905;BME280;2978;42.012;24.880;2023-04-10T03:48:42;98852.09;;;8.00;69.74
5905;BME280;2978;42.012;24.880;2023-04-10T03:51:07;98850.72;;;7.98;70.14
5905;BME280;2978;42.012;24.880;2023-04-10T03:53:32;98856.19;;;7.98;70.22
5905;BME280;2978;42.012;24.880;2023-04-10T03:56:01;98849.66;;;8.04;69.83
5905;BME280;2978;42.012;24.880;2023-04-10T03:58:27;98855.28;;;8.14;68.95
5905;BME280;2978;42.012;24.880;2023-04-10T04:00:52;98863.03;;;8.22;68.80
5905;BME280;2978;42.012;24.880;2023-04-10T04:03:18;98858.81;;;8.36;67.64
5905;BME280;2978;42.012;24.880;2023-04-10T04:05:43;98864.63;;;8.40;67.20
5905;BME280;2978;42.012;24.880;2023-04-10T04:08:09;98865.50;;;8.45;67.83
5905;BME280;2978;42.012;24.880;2023-04-10T04:10:34;98861.19;;;8.54;67.51
5905;BME280;2978;42.012;24.880;2023-04-10T04:13:00;98861.75;;;8.56;67.34
5905;BME280;2978;42.012;24.880;2023-04-10T04:15:25;98861.78;;;8.61;67.27
5905;BME280;2978;42.012;24.880;2023-04-10T04:17:51;98861.47;;;8.84;66.54
5905;BME280;2978;42.012;24.880;2023-04-10T04:20:16;98865.41;;;8.98;65.62
5905;BME280;2978;42.012;24.880;2023-04-10T04:22:42;98870.28;;;9.23;64.37
5905;BME280;2978;42.012;24.880;2023-04-10T04:25:08;98868.69;;;9.32;64.39
5905;BME280;2978;42.012;24.880;2023-04-10T04:27:35;98860.50;;;9.42;63.42
5905;BME280;2978;42.012;24.880;2023-04-10T04:30:01;98865.69;;;9.34;63.71
5905;BME280;2978;42.012;24.880;2023-04-10T04:32:27;98859.34;;;9.33;63.59
5905;BME280;2978;42.012;24.880;2023-04-10T04:34:52;98863.69;;;9.24;64.29
5905;BME280;2978;42.012;24.880;2023-04-10T04:37:18;98870.50;;;9.17;64.53
5905;BME280;2978;42.012;24.880;2023-04-10T04:39:43;98863.66;;;9.19;64.55
5905;BME280;2978;42.012;24.880;2023-04-10T04:42:09;98858.09;;;9.09;64.80
5905;BME280;2978;42.012;24.880;2023-04-10T04:44:34;98863.84;;;9.07;64.32
5905;BME280;2978;42.012;24.880;2023-04-10T04:46:59;98867.19;;;9.15;64.49
5905;BME280;2978;42.012;24.880;2023-04-10T04:49:25;98872.44;;;9.21;64.37
5905;BME280;2978;42.012;24.880;2023-04-10T04:51:50;98865.13;;;9.32;63.90
5905;BME280;2978;42.012;24.880;2023-04-10T04:54:16;98878.88;;;9.42;63.61
5905;BME280;2978;42.012;24.880;2023-04-10T04:56:41;98871.34;;;9.64;63.22
5905;BME280;2978;42.012;24.880;2023-04-10T04:59:06;98865.38;;;9.82;62.24
5905;BME280;2978;42.012;24.880;2023-04-10T05:01:32;98865.47;;;9.97;61.52
5905;BME280;2978;42.012;24.880;2023-04-10T05:03:57;98863.19;;;10.46;60.08
5905;BME280;2978;42.012;24.880;2023-04-10T05:06:23;98869.81;;;11.20;57.54
5905;BME280;2978;42.012;24.880;2023-04-10T05:08:48;98864.81;;;11.62;54.96
5905;BME280;2978;42.012;24.880;2023-04-10T05:11:13;98866.22;;;11.24;55.43
5905;BME280;2978;42.012;24.880;2023-04-10T05:13:39;98869.56;;;10.96;57.06
5905;BME280;2978;42.012;24.880;2023-04-10T05:16:05;98865.69;;;10.72;57.36
5905;BME280;2978;42.012;24.880;2023-04-10T05:18:31;98877.78;;;10.61;57.65
5905;BME280;2978;42.012;24.880;2023-04-10T05:20:56;98877.22;;;10.64;58.06
5905;BME280;2978;42.012;24.880;2023-04-10T05:23:22;98877.78;;;10.61;57.74
5905;BME280;2978;42.012;24.880;2023-04-10T05:26:12;98885.75;;;10.68;57.65
5905;BME280;2978;42.012;24.880;2023-04-10T05:28:58;98886.59;;;10.63;58.21
5905;BME280;2978;42.012;24.880;2023-04-10T05:31:23;98883.84;;;10.73;57.83
5905;BME280;2978;42.012;24.880;2023-04-10T05:33:49;98878.06;;;10.95;56.76
5905;BME280;2978;42.012;24.880;2023-04-10T05:36:14;98885.53;;;10.89;56.91
5905;BME280;2978;42.012;24.880;2023-04-10T05:38:42;98886.34;;;11.00;57.28
5905;BME280;2978;42.012;24.880;2023-04-10T05:41:07;98880.84;;;11.05;56.62
5905;BME280;2978;42.012;24.880;2023-04-10T05:43:33;98886.63;;;11.13;56.45
5905;BME280;2978;42.012;24.880;2023-04-10T05:45:58;98880.28;;;11.38;55.93
5905;BME280;2978;42.012;24.880;2023-04-10T05:48:23;98882.16;;;11.58;55.11
5905;BME280;2978;42.012;24.880;2023-04-10T05:50:50;98898.09;;;11.81;54.15
5905;BME280;2978;42.012;24.880;2023-04-10T05:53:18;98894.97;;;12.12;53.50
5905;BME280;2978;42.012;24.880;2023-04-10T05:55:43;98886.28;;;12.44;52.38
5905;BME280;2978;42.012;24.880;2023-04-10T05:58:09;98877.00;;;12.74;51.56
5905;BME280;2978;42.012;24.880;2023-04-10T06:00:34;98886.34;;;13.21;50.49
5905;BME280;2978;42.012;24.880;2023-04-10T06:03:01;98884.88;;;13.57;49.32
5905;BME280;2978;42.012;24.880;2023-04-10T06:05:27;98880.47;;;13.56;48.70
5905;BME280;2978;42.012;24.880;2023-04-10T06:07:52;98888.66;;;13.67;48.35
5905;BME280;2978;42.012;24.880;2023-04-10T06:10:18;98895.66;;;13.83;47.89
5905;BME280;2978;42.012;24.880;2023-04-10T06:12:43;98889.72;;;14.18;47.42
5905;BME280;2978;42.012;24.880;2023-04-10T06:15:09;98879.03;;;14.35;46.62
5905;BME280;2978;42.012;24.880;2023-04-10T06:17:40;98882.47;;;14.45;46.04
5905;BME280;2978;42.012;24.880;2023-04-10T06:20:06;98882.16;;;14.71;45.82
5905;BME280;2978;42.012;24.880;2023-04-10T06:22:32;98885.03;;;14.98;44.74
5905;BME280;2978;42.012;24.880;2023-04-10T06:24:57;98888.34;;;15.00;44.25
5905;BME280;2978;42.012;24.880;2023-04-10T06:27:23;98881.06;;;15.22;44.43
5905;BME280;2978;42.012;24.880;2023-04-10T06:29:48;98878.00;;;15.56;42.99
5905;BME280;2978;42.012;24.880;2023-04-10T06:32:14;98871.84;;;15.59;42.65
5905;BME280;2978;42.012;24.880;2023-04-10T06:34:39;98875.69;;;15.90;42.54
5905;BME280;2978;42.012;24.880;2023-04-10T06:37:05;98889.06;;;16.02;42.36
5905;BME280;2978;42.012;24.880;2023-04-10T06:39:30;98885.88;;;15.95;42.46
5905;BME280;2978;42.012;24.880;2023-04-10T06:41:56;98884.00;;;15.90;42.21
5905;BME280;2978;42.012;24.880;2023-04-10T06:44:22;98883.00;;;15.72;42.90
5905;BME280;2978;42.012;24.880;2023-04-10T06:46:47;98885.81;;;15.67;43.06
5905;BME280;2978;42.012;24.880;2023-04-10T06:49:12;98884.25;;;16.07;43.42
5905;BME280;2978;42.012;24.880;2023-04-10T06:51:38;98895.34;;;16.48;43.39
5905;BME280;2978;42.012;24.880;2023-04-10T06:54:03;98893.66;;;16.74;42.33
5905;BME280;2978;42.012;24.880;2023-04-10T06:56:29;98890.38;;;17.30;41.65
5905;BME280;2978;42.012;24.880;2023-04-10T06:58:54;98890.94;;;17.84;40.75
5905;BME280;2978;42.012;24.880;2023-04-10T07:01:20;98908.59;;;18.11;38.90
5905;BME280;2978;42.012;24.880;2023-04-10T07:03:45;98891.22;;;18.05;38.72
5905;BME280;2978;42.012;24.880;2023-04-10T07:06:11;98901.47;;;18.27;38.61
5905;BME280;2978;42.012;24.880;2023-04-10T07:08:37;98900.81;;;18.30;37.80
5905;BME280;2978;42.012;24.880;2023-04-10T07:11:02;98904.38;;;18.22;38.40
5905;BME280;2978;42.012;24.880;2023-04-10T07:13:28;98904.66;;;18.12;37.70
5905;BME280;2978;42.012;24.880;2023-04-10T07:15:53;98898.88;;;17.99;38.08
5905;BME280;2978;42.012;24.880;2023-04-10T07:18:18;98907.34;;;17.94;38.49
5905;BME280;2978;42.012;24.880;2023-04-10T07:20:44;98908.03;;;18.00;38.19
5905;BME280;2978;42.012;24.880;2023-04-10T07:23:09;98906.66;;;18.20;37.94
5905;BME280;2978;42.012;24.880;2023-04-10T07:25:35;98907.75;;;18.10;37.13
5905;BME280;2978;42.012;24.880;2023-04-10T07:28:01;98904.88;;;18.24;37.18
5905;BME280;2978;42.012;24.880;2023-04-10T07:30:26;98902.13;;;18.32;36.94
5905;BME280;2978;42.012;24.880;2023-04-10T07:32:52;98903.78;;;18.33;36.98
5905;BME280;2978;42.012;24.880;2023-04-10T07:35:17;98901.59;;;18.22;36.93
5905;BME280;2978;42.012;24.880;2023-04-10T07:37:42;98900.53;;;18.01;37.13
5905;BME280;2978;42.012;24.880;2023-04-10T07:40:08;98904.63;;;17.72;37.38
5905;BME280;2978;42.012;24.880;2023-04-10T07:42:34;98892.38;;;17.51;37.81
5905;BME280;2978;42.012;24.880;2023-04-10T07:45:00;98890.94;;;17.84;37.44
5905;BME280;2978;42.012;24.880;2023-04-10T07:53:54;98899.53;;;17.96;37.06
5905;BME280;2978;42.012;24.880;2023-04-10T07:56:21;98891.41;;;18.17;36.44
5905;BME280;2978;42.012;24.880;2023-04-10T07:58:46;98904.25;;;18.27;36.45
5905;BME280;2978;42.012;24.880;2023-04-10T08:01:13;98896.81;;;18.53;35.84
5905;BME280;2978;42.012;24.880;2023-04-10T08:03:39;98894.03;;;18.44;35.76
5905;BME280;2978;42.012;24.880;2023-04-10T08:06:06;98896.16;;;18.17;36.58
5905;BME280;2978;42.012;24.880;2023-04-10T08:08:34;98888.81;;;17.81;36.64
5905;BME280;2978;42.012;24.880;2023-04-10T08:11:01;98893.72;;;17.40;36.89
5905;BME280;2978;42.012;24.880;2023-04-10T08:13:26;98882.88;;;17.08;37.99
5905;BME280;2978;42.012;24.880;2023-04-10T08:16:10;98887.03;;;17.19;38.13
5905;BME280;2978;42.012;24.880;2023-04-10T08:18:36;98878.25;;;17.04;37.90
5905;BME280;2978;42.012;24.880;2023-04-10T08:21:01;98878.56;;;17.02;38.15
5905;BME280;2978;42.012;24.880;2023-04-10T08:23:26;98882.50;;;17.01;38.56
5905;BME280;2978;42.012;24.880;2023-04-10T08:25:52;98890.19;;;17.26;38.09
5905;BME280;2978;42.012;24.880;2023-04-10T08:28:17;98878.22;;;17.39;38.06
5905;BME280;2978;42.012;24.880;2023-04-10T08:30:45;98877.84;;;17.54;37.99
5905;BME280;2978;42.012;24.880;2023-04-10T08:33:10;98882.09;;;17.38;37.56
5905;BME280;2978;42.012;24.880;2023-04-10T08:35:36;98884.50;;;17.09;38.59
5905;BME280;2978;42.012;24.880;2023-04-10T08:38:01;98877.25;;;17.00;38.61
5905;BME280;2978;42.012;24.880;2023-04-10T08:40:27;98874.97;;;16.66;39.70
5905;BME280;2978;42.012;24.880;2023-04-10T08:42:52;98863.59;;;16.40;40.29
5905;BME280;2978;42.012;24.880;2023-04-10T08:45:18;98874.38;;;16.28;40.83
5905;BME280;2978;42.012;24.880;2023-04-10T08:47:44;98876.94;;;15.98;41.56
5905;BME280;2978;42.012;24.880;2023-04-10T08:50:29;98869.19;;;15.67;42.85
5905;BME280;2978;42.012;24.880;2023-04-10T09:06:21;98848.91;;;14.89;46.14
5905;BME280;2978;42.012;24.880;2023-04-10T09:08:47;98852.69;;;14.80;46.56
5905;BME280;2978;42.012;24.880;2023-04-10T09:11:13;98843.34;;;14.57;47.33
5905;BME280;2978;42.012;24.880;2023-04-10T09:13:42;98846.38;;;14.74;47.14
5905;BME280;2978;42.012;24.880;2023-04-10T09:16:09;98844.28;;;14.47;48.15
5905;BME280;2978;42.012;24.880;2023-04-10T09:18:43;98851.59;;;14.38;49.05
5905;BME280;2978;42.012;24.880;2023-04-10T09:21:10;98842.97;;;14.45;49.12
5905;BME280;2978;42.012;24.880;2023-04-10T09:23:36;98843.41;;;14.52;49.55
5905;BME280;2978;42.012;24.880;2023-04-10T09:26:20;98845.88;;;14.53;49.30
5905;BME280;2978;42.012;24.880;2023-04-10T09:34:11;98839.66;;;14.43;48.47
5905;BME280;2978;42.012;24.880;2023-04-10T09:36:38;98831.44;;;14.38;48.71
5905;BME280;2978;42.012;24.880;2023-04-10T09:39:06;98835.16;;;14.28;48.43
5905;BME280;2978;42.012;24.880;2023-04-10T09:41:32;98832.53;;;14.37;48.09
5905;BME280;2978;42.012;24.880;2023-04-10T09:44:26;98841.81;;;14.46;48.66
5905;BME280;2978;42.012;24.880;2023-04-10T09:46:52;98834.97;;;14.62;49.01
5905;BME280;2978;42.012;24.880;2023-04-10T09:49:18;98832.91;;;14.49;49.71
5905;BME280;2978;42.012;24.880;2023-04-10T09:51:43;98820.75;;;14.50;50.02
5905;BME280;2978;42.012;24.880;2023-04-10T09:54:09;98823.44;;;14.55;50.43
5905;BME280;2978;42.012;24.880;2023-04-10T09:56:37;98836.22;;;14.32;50.52
5905;BME280;2978;42.012;24.880;2023-04-10T09:59:05;98827.09;;;14.32;50.94
5905;BME280;2978;42.012;24.880;2023-04-10T10:01:32;98841.81;;;14.46;50.71
5905;BME280;2978;42.012;24.880;2023-04-10T10:04:03;98837.53;;;14.35;50.35
5905;BME280;2978;42.012;24.880;2023-04-10T10:06:32;98829.69;;;14.42;50.31
5905;BME280;2978;42.012;24.880;2023-04-10T10:09:03;98832.19;;;14.43;50.25
5905;BME280;2978;42.012;24.880;2023-04-10T10:11:33;98831.59;;;14.46;50.37
5905;BME280;2978;42.012;24.880;2023-04-10T10:14:08;98830.00;;;14.40;50.77
5905;BME280;2978;42.012;24.880;2023-04-10T10:16:46;98835.31;;;14.37;50.41
5905;BME280;2978;42.012;24.880;2023-04-10T10:19:21;98837.09;;;14.28;50.76
5905;BME280;2978;42.012;24.880;2023-04-10T10:21:54;98840.72;;;14.23;51.21
5905;BME280;2978;42.012;24.880;2023-04-10T10:24:24;98838.78;;;14.24;50.56
5905;BME280;2978;42.012;24.880;2023-04-10T10:26:50;98836.41;;;14.17;50.89
5905;BME280;2978;42.012;24.880;2023-04-10T10:31:41;98829.63;;;14.05;50.88
5905;BME280;2978;42.012;24.880;2023-04-10T10:34:07;98823.13;;;13.96;51.55
5905;BME280;2978;42.012;24.880;2023-04-10T10:36:37;98829.81;;;14.13;51.10
5905;BME280;2978;42.012;24.880;2023-04-10T10:42:32;98827.91;;;14.51;50.64
5905;BME280;2978;42.012;24.880;2023-04-10T10:45:10;98826.44;;;14.40;50.19
5905;BME280;2978;42.012;24.880;2023-04-10T10:47:49;98818.19;;;14.35;50.79
5905;BME280;2978;42.012;24.880;2023-04-10T10:50:15;98818.19;;;14.35;50.54
5905;BME280;2978;42.012;24.880;2023-04-10T10:57:49;98803.03;;;14.32;50.15
5905;BME280;2978;42.012;24.880;2023-04-10T11:00:16;98804.28;;;14.58;50.41
5905;BME280;2978;42.012;24.880;2023-04-10T11:02:42;98808.63;;;14.83;49.80
5905;BME280;2978;42.012;24.880;2023-04-10T11:05:07;98813.44;;;14.59;49.95
5905;BME280;2978;42.012;24.880;2023-04-10T11:11:04;98809.25;;;14.19;52.29
5905;BME280;2978;42.012;24.880;2023-04-10T11:13:38;98823.38;;;14.18;53.47
5905;BME280;2978;42.012;24.880;2023-04-10T11:16:05;98808.34;;;13.82;54.47
5905;BME280;2978;42.012;24.880;2023-04-10T11:21:12;98822.25;;;13.24;56.44
5905;BME280;2978;42.012;24.880;2023-04-10T11:31:42;98805.16;;;13.22;57.30
5905;BME280;2978;42.012;24.880;2023-04-10T11:34:08;98807.75;;;13.37;56.84
5905;BME280;2978;42.012;24.880;2023-04-10T11:36:39;98803.88;;;13.38;57.52
5905;BME280;2978;42.012;24.880;2023-04-10T11:39:12;98804.22;;;13.32;57.42
5905;BME280;2978;42.012;24.880;2023-04-10T11:41:40;98796.91;;;13.17;58.52
5905;BME280;2978;42.012;24.880;2023-04-10T11:44:11;98800.09;;;13.29;57.81
5905;BME280;2978;42.012;24.880;2023-04-10T11:46:41;98791.28;;;13.27;58.17
5905;BME280;2978;42.012;24.880;2023-04-10T11:49:09;98804.44;;;13.35;58.10
5905;BME280;2978;42.012;24.880;2023-04-10T11:51:36;98794.59;;;13.29;57.99
5905;BME280;2978;42.012;24.880;2023-04-10T11:54:09;98800.94;;;13.30;57.04
5905;BME280;2978;42.012;24.880;2023-04-10T11:56:39;98792.25;;;13.41;57.66
5905;BME280;2978;42.012;24.880;2023-04-10T11:59:07;98794.03;;;13.56;58.08
5905;BME280;2978;42.012;24.880;2023-04-10T12:01:41;98781.44;;;13.69;59.20
5905;BME280;2978;42.012;24.880;2023-04-10T12:04:17;98784.16;;;13.74;57.90
5905;BME280;2978;42.012;24.880;2023-04-10T12:06:56;98788.38;;;13.66;58.25
5905;BME280;2978;42.012;24.880;2023-04-10T12:09:22;98783.09;;;13.70;59.07
5905;BME280;2978;42.012;24.880;2023-04-10T12:12:02;98776.91;;;13.78;58.65
5905;BME280;2978;42.012;24.880;2023-04-10T12:16:58;98774.19;;;14.15;57.75
5905;BME280;2978;42.012;24.880;2023-04-10T12:19:25;98770.31;;;14.16;56.67
5905;BME280;2978;42.012;24.880;2023-04-10T12:21:53;98767.50;;;14.21;55.93
5905;BME280;2978;42.012;24.880;2023-04-10T12:24:42;98763.06;;;14.20;56.17
5905;BME280;2978;42.012;24.880;2023-04-10T12:27:21;98765.84;;;14.20;57.29
5905;BME280;2978;42.012;24.880;2023-04-10T12:29:48;98756.09;;;14.04;56.27
5905;BME280;2978;42.012;24.880;2023-04-10T12:32:14;98753.41;;;13.99;58.68
5905;BME280;2978;42.012;24.880;2023-04-10T12:34:40;98755.59;;;14.20;58.23
5905;BME280;2978;42.012;24.880;2023-04-10T12:37:06;98732.66;;;14.57;57.07
5905;BME280;2978;42.012;24.880;2023-04-10T12:39:34;98746.75;;;15.06;55.83
5905;BME280;2978;42.012;24.880;2023-04-10T12:42:21;98740.41;;;15.19;54.63
5905;BME280;2978;42.012;24.880;2023-04-10T12:44:57;98733.63;;;15.12;56.30
5905;BME280;2978;42.012;24.880;2023-04-10T12:47:24;98739.56;;;15.05;54.16
5905;BME280;2978;42.012;24.880;2023-04-10T12:50:10;98731.72;;;14.80;52.87
5905;BME280;2978;42.012;24.880;2023-04-10T12:56:03;98724.97;;;14.86;51.38
5905;BME280;2978;42.012;24.880;2023-04-10T12:58:31;98713.38;;;14.84;52.86
5905;BME280;2978;42.012;24.880;2023-04-10T13:01:07;98704.44;;;14.87;53.71
5905;BME280;2978;42.012;24.880;2023-04-10T13:03:38;98715.16;;;14.94;53.04
5905;BME280;2978;42.012;24.880;2023-04-10T13:06:07;98709.00;;;15.10;51.93
5905;BME280;2978;42.012;24.880;2023-04-10T13:08:35;98695.72;;;15.39;49.93
5905;BME280;2978;42.012;24.880;2023-04-10T13:11:01;98697.56;;;15.30;49.14
5905;BME280;2978;42.012;24.880;2023-04-10T13:13:30;98694.28;;;15.42;49.87
5905;BME280;2978;42.012;24.880;2023-04-10T13:15:57;98695.53;;;15.49;50.04
5905;BME280;2978;42.012;24.880;2023-04-10T13:18:22;98686.91;;;15.51;49.32
5905;BME280;2978;42.012;24.880;2023-04-10T13:20:48;98689.38;;;15.52;49.03
5905;BME280;2978;42.012;24.880;2023-04-10T13:23:13;98684.31;;;15.68;48.39
5905;BME280;2978;42.012;24.880;2023-04-10T13:25:39;98680.00;;;15.75;48.04
5905;BME280;2978;42.012;24.880;2023-04-10T13:28:06;98688.13;;;16.08;47.77
5905;BME280;2978;42.012;24.880;2023-04-10T13:30:39;98686.25;;;16.17;47.02
5905;BME280;2978;42.012;24.880;2023-04-10T13:33:05;98684.75;;;15.97;47.15
5905;BME280;2978;42.012;24.880;2023-04-10T13:35:30;98683.84;;;16.02;46.68
5905;BME280;2978;42.012;24.880;2023-04-10T13:37:56;98671.81;;;16.06;46.23
5905;BME280;2978;42.012;24.880;2023-04-10T13:40:21;98669.81;;;15.85;47.40
5905;BME280;2978;42.012;24.880;2023-04-10T13:42:47;98666.94;;;15.76;48.20
5905;BME280;2978;42.012;24.880;2023-04-10T13:45:13;98670.63;;;15.85;48.23
5905;BME280;2978;42.012;24.880;2023-04-10T13:47:39;98660.59;;;15.75;48.55
5905;BME280;2978;42.012;24.880;2023-04-10T13:50:05;98660.81;;;15.52;50.13
5905;BME280;2978;42.012;24.880;2023-04-10T13:52:31;98658.13;;;15.60;50.22
5905;BME280;2978;42.012;24.880;2023-04-10T13:54:56;98648.94;;;15.51;50.01
5905;BME280;2978;42.012;24.880;2023-04-10T13:57:22;98649.94;;;15.55;50.35
5905;BME280;2978;42.012;24.880;2023-04-10T13:59:47;98652.50;;;15.38;51.13
5905;BME280;2978;42.012;24.880;2023-04-10T14:02:13;98653.03;;;15.27;51.66
5905;BME280;2978;42.012;24.880;2023-04-10T14:04:38;98650.97;;;15.05;52.53
5905;BME280;2978;42.012;24.880;2023-04-10T14:07:03;98643.34;;;14.84;52.35
5905;BME280;2978;42.012;24.880;2023-04-10T14:09:30;98648.34;;;14.68;53.21
5905;BME280;2978;42.012;24.880;2023-04-10T14:11:55;98652.72;;;14.55;54.11
5905;BME280;2978;42.012;24.880;2023-04-10T14:14:22;98638.59;;;14.57;54.58
5905;BME280;2978;42.012;24.880;2023-04-10T14:16:48;98643.16;;;14.48;55.14
5905;BME280;2978;42.012;24.880;2023-04-10T14:19:14;98639.25;;;14.35;56.50
5905;BME280;2978;42.012;24.880;2023-04-10T14:21:39;98639.53;;;14.34;56.77
5905;BME280;2978;42.012;24.880;2023-04-10T14:24:08;98634.63;;;14.31;57.87
5905;BME280;2978;42.012;24.880;2023-04-10T14:26:33;98637.59;;;14.16;58.35
5905;BME280;2978;42.012;24.880;2023-04-10T14:28:59;98639.78;;;14.00;59.82
5905;BME280;2978;42.012;24.880;2023-04-10T14:31:24;98638.16;;;13.81;61.45